createdAt,value
2023-05-23T00:01:18.554Z,100748.22
2023-05-23T00:03:47.573Z,100750.06
2023-05-23T00:06:15.830Z,100744.84
2023-05-23T00:08:44.054Z,100738.91
2023-05-23T00:11:13.505Z,100737.25
2023-05-23T00:13:42.321Z,100743.38
2023-05-23T00:16:10.602Z,100745.13
2023-05-23T00:18:38.585Z,100745.22
2023-05-23T00:21:06.936Z,100737.34
2023-05-23T00:23:35.264Z,100733.81
2023-05-23T00:26:04.154Z,100739.13
2023-05-23T00:28:32.264Z,100732.28
2023-05-23T00:31:00.352Z,100734.09
2023-05-23T00:33:29.833Z,100726.22
2023-05-23T00:35:57.957Z,100726.38
2023-05-23T00:38:26.890Z,100729.97
2023-05-23T00:40:54.618Z,100728.22
2023-05-23T00:43:23.001Z,100724.78
2023-05-23T00:45:50.982Z,100731.06
2023-05-23T00:48:18.861Z,100727.75
2023-05-23T00:50:46.803Z,100725.19
2023-05-23T00:53:14.507Z,100726.88
2023-05-23T00:55:42.992Z,100725.16
2023-05-23T00:58:10.446Z,100727.72
2023-05-23T01:00:38.736Z,100733.78
2023-05-23T01:03:07.206Z,100737.34
2023-05-23T01:05:34.927Z,100747.78
2023-05-23T01:08:03.462Z,100743.44
2023-05-23T01:10:30.994Z,100752.97
2023-05-23T01:13:31.556Z,100742.56
2023-05-23T01:16:19.173Z,100738.25
2023-05-23T01:18:48.005Z,100740.00
2023-05-23T01:21:19.177Z,100740.00
2023-05-23T01:24:17.792Z,100738.22
2023-05-23T01:27:14.271Z,100741.75
2023-05-23T01:29:46.213Z,100750.50
2023-05-23T01:32:15.249Z,100734.88
2023-05-23T01:34:42.749Z,100741.84
2023-05-23T01:37:18.835Z,100737.44
2023-05-23T01:39:46.621Z,100734.78
2023-05-23T01:42:14.312Z,100740.91
2023-05-23T01:44:42.507Z,100740.06
2023-05-23T01:47:10.572Z,100736.53
2023-05-23T01:49:37.851Z,100730.47
2023-05-23T01:52:09.848Z,100715.63
2023-05-23T01:54:38.406Z,100720.75
2023-05-23T01:57:06.472Z,100718.94
2023-05-23T01:59:34.901Z,100722.38
2023-05-23T02:02:02.964Z,100731.13
2023-05-23T02:04:31.038Z,100723.34
2023-05-23T02:06:58.798Z,100720.78
2023-05-23T02:09:27.298Z,100720.78
2023-05-23T02:11:55.583Z,100717.31
2023-05-23T02:14:24.720Z,100715.56
2023-05-23T02:16:53.077Z,100717.41
2023-05-23T02:19:20.940Z,100717.50
2023-05-23T02:21:48.769Z,100724.50
2023-05-23T02:24:17.058Z,100721.09
2023-05-23T02:26:45.333Z,100722.00
2023-05-23T02:29:13.772Z,100717.69
2023-05-23T02:31:41.862Z,100717.69
2023-05-23T02:34:09.769Z,100721.09
2023-05-23T02:36:37.523Z,100716.66
2023-05-23T02:39:05.706Z,100714.84
2023-05-23T02:41:33.885Z,100714.88
2023-05-23T02:44:01.999Z,100715.72
2023-05-23T02:46:29.826Z,100720.94
2023-05-23T02:48:58.322Z,100717.50
2023-05-23T02:51:26.716Z,100718.34
2023-05-23T02:53:54.697Z,100719.22
2023-05-23T02:56:22.754Z,100713.09
2023-05-23T02:58:50.470Z,100713.16
2023-05-23T03:01:18.205Z,100719.38
2023-05-23T03:03:46.642Z,100717.69
2023-05-23T03:06:14.747Z,100721.16
2023-05-23T03:08:43.037Z,100728.94
2023-05-23T03:11:11.104Z,100719.38
2023-05-23T03:13:38.937Z,100724.53
2023-05-23T03:16:07.675Z,100724.53
2023-05-23T03:18:35.716Z,100722.00
2023-05-23T03:21:03.679Z,100716.91
2023-05-23T03:23:31.690Z,100714.28
2023-05-23T03:25:59.901Z,100722.13
2023-05-23T03:28:27.825Z,100718.66
2023-05-23T03:30:56.126Z,100717.72
2023-05-23T03:33:24.191Z,100722.09
2023-05-23T03:35:53.064Z,100720.34
2023-05-23T03:38:21.307Z,100723.81
2023-05-23T03:40:49.250Z,100725.56
2023-05-23T03:43:17.362Z,100733.38
2023-05-23T03:45:45.248Z,100729.91
2023-05-23T03:48:13.033Z,100731.72
2023-05-23T03:50:40.780Z,100737.75
2023-05-23T03:53:08.875Z,100733.31
2023-05-23T03:55:37.047Z,100733.31
2023-05-23T03:58:05.131Z,100740.28
2023-05-23T04:00:33.338Z,100742.91
2023-05-23T04:03:01.776Z,100732.47
2023-05-23T04:05:29.788Z,100732.50
2023-05-23T04:07:57.756Z,100729.94
2023-05-23T04:10:25.259Z,100740.41
2023-05-23T04:12:53.688Z,100735.09
2023-05-23T04:15:21.686Z,100744.66
2023-05-23T04:17:49.722Z,100742.00
2023-05-23T04:20:17.968Z,100740.25
2023-05-23T04:22:45.673Z,100742.78
2023-05-23T04:25:13.958Z,100742.84
2023-05-23T04:27:42.808Z,100743.69
2023-05-23T04:30:13.267Z,100749.75
2023-05-23T04:32:40.963Z,100748.88
2023-05-23T04:35:13.618Z,100747.13
2023-05-23T04:37:42.630Z,100747.09
2023-05-23T04:40:13.642Z,100743.63
2023-05-23T04:42:44.765Z,100751.47
2023-05-23T04:45:12.989Z,100750.56
2023-05-23T04:47:42.167Z,100752.31
2023-05-23T04:50:12.309Z,100744.50
2023-05-23T04:52:40.392Z,100743.56
2023-05-23T04:55:10.362Z,100753.22
2023-05-23T04:57:38.966Z,100747.00
2023-05-23T05:00:10.484Z,100746.09
2023-05-23T05:02:39.131Z,100745.25
2023-05-23T05:05:08.568Z,100747.78
2023-05-23T05:07:37.067Z,100739.09
2023-05-23T05:10:05.346Z,100744.22
2023-05-23T05:12:33.019Z,100743.28
2023-05-23T05:15:00.513Z,100745.78
2023-05-23T05:17:28.298Z,100746.66
2023-05-23T05:19:56.468Z,100744.84
2023-05-23T05:22:25.872Z,100737.91
2023-05-23T05:24:53.936Z,100746.53
2023-05-23T05:27:21.638Z,100735.91
2023-05-23T05:29:50.143Z,100736.72
2023-05-23T05:32:17.736Z,100741.88
2023-05-23T05:34:49.136Z,100738.41
2023-05-23T05:37:17.101Z,100733.97
2023-05-23T05:39:44.689Z,100733.81
2023-05-23T05:42:12.653Z,100728.41
2023-05-23T05:44:40.870Z,100726.50
2023-05-23T05:47:08.863Z,100725.50
2023-05-23T05:49:36.805Z,100735.91
2023-05-23T05:52:05.267Z,100728.81
2023-05-23T05:54:33.365Z,100727.91
2023-05-23T05:57:00.600Z,100731.31
2023-05-23T05:59:28.691Z,100729.38
2023-05-23T06:01:57.690Z,100736.03
2023-05-23T06:04:25.711Z,100731.50
2023-05-23T06:06:53.303Z,100726.00
2023-05-23T06:09:21.826Z,100729.34
2023-05-23T06:11:49.449Z,100725.00
2023-05-23T06:14:17.484Z,100732.75
2023-05-23T06:16:45.855Z,100731.84
2023-05-23T06:19:13.526Z,100732.69
2023-05-23T06:21:41.214Z,100735.19
2023-05-23T06:24:08.967Z,100740.28
2023-05-23T06:26:37.726Z,100741.66
2023-05-23T06:29:06.002Z,100738.91
2023-05-23T06:31:33.741Z,100740.38
2023-05-23T06:34:02.728Z,100746.38
2023-05-23T06:36:31.810Z,100748.66
2023-05-23T06:38:59.916Z,100751.16
2023-05-23T06:41:27.741Z,100756.22
2023-05-23T06:43:55.322Z,100746.31
2023-05-23T06:46:23.561Z,100749.56
2023-05-23T06:48:59.510Z,100740.50
2023-05-23T06:51:34.876Z,100745.47
2023-05-23T06:54:03.143Z,100746.53
2023-05-23T06:56:30.792Z,100745.34
2023-05-23T06:58:58.583Z,100746.16
2023-05-23T07:01:27.424Z,100744.06
2023-05-23T07:03:55.208Z,100741.34
2023-05-23T07:06:22.119Z,100735.91
2023-05-23T07:08:50.186Z,100737.75
2023-05-23T07:11:18.183Z,100732.22
2023-05-23T07:13:46.449Z,100726.81
2023-05-23T07:16:14.058Z,100723.09
2023-05-23T07:18:42.021Z,100727.31
2023-05-23T07:21:10.062Z,100730.69
2023-05-23T07:23:38.174Z,100727.13
2023-05-23T07:26:06.166Z,100727.81
2023-05-23T07:28:33.771Z,100733.47
2023-05-23T07:31:01.514Z,100721.81
2023-05-23T07:33:33.214Z,100733.78
2023-05-23T07:36:00.952Z,100728.50
2023-05-23T07:38:28.560Z,100733.75
2023-05-23T07:41:09.820Z,100730.81
2023-05-23T07:43:38.454Z,100725.94
2023-05-23T07:46:07.166Z,100723.28
2023-05-23T07:48:35.470Z,100719.69
2023-05-23T07:51:03.613Z,100723.97
2023-05-23T07:53:31.498Z,100717.53
2023-05-23T07:55:59.134Z,100716.31
2023-05-23T07:58:27.215Z,100719.00
2023-05-23T08:00:55.323Z,100716.31
2023-05-23T08:03:23.336Z,100720.44
2023-05-23T08:05:51.474Z,100717.53
2023-05-23T08:08:19.483Z,100711.88
2023-05-23T08:10:47.440Z,100712.78
2023-05-23T08:13:15.667Z,100714.50
2023-05-23T08:15:44.287Z,100713.44
2023-05-23T08:18:13.533Z,100710.56
2023-05-23T08:20:42.244Z,100717.13
2023-05-23T08:23:10.072Z,100720.91
2023-05-23T08:25:38.019Z,100715.78
2023-05-23T08:28:06.256Z,100723.25
2023-05-23T08:30:34.797Z,100721.03
2023-05-23T08:33:05.042Z,100723.19
2023-05-23T08:35:38.313Z,100727.75
2023-05-23T08:38:10.642Z,100725.69
2023-05-23T08:40:38.319Z,100725.69
2023-05-23T08:43:06.052Z,100727.75
2023-05-23T08:45:34.553Z,100726.50
2023-05-23T08:48:02.250Z,100725.31
2023-05-23T08:50:30.649Z,100720.78
2023-05-23T08:52:59.966Z,100730.31
2023-05-23T08:55:28.856Z,100730.31
2023-05-23T08:58:00.476Z,100727.16
2023-05-23T09:00:28.143Z,100722.31
2023-05-23T09:02:56.142Z,100720.34
2023-05-23T09:05:23.922Z,100719.53
2023-05-23T09:07:54.003Z,100716.28
2023-05-23T09:10:22.061Z,100709.06
2023-05-23T09:12:53.609Z,100716.19
2023-05-23T09:15:22.487Z,100702.75
2023-05-23T09:17:50.662Z,100703.19
2023-05-23T09:20:18.786Z,100709.16
2023-05-23T09:23:07.739Z,100711.25
2023-05-23T09:25:38.927Z,100703.69
2023-05-23T09:28:07.167Z,100707.00
2023-05-23T09:30:35.475Z,100703.31
2023-05-23T09:33:05.420Z,100709.81
2023-05-23T09:35:33.707Z,100707.88
2023-05-23T09:38:01.766Z,100713.06
2023-05-23T09:40:33.283Z,100707.00
2023-05-23T09:43:04.517Z,100704.56
2023-05-23T09:45:32.624Z,100709.72
2023-05-23T09:48:02.304Z,100701.84
2023-05-23T09:50:34.413Z,100694.06
2023-05-23T09:53:02.753Z,100697.63
2023-05-23T09:55:30.710Z,100702.78
2023-05-23T09:57:58.710Z,100704.63
2023-05-23T10:00:26.636Z,100706.09
2023-05-23T10:03:15.257Z,100701.88
2023-05-23T10:05:46.140Z,100703.09
2023-05-23T10:08:29.877Z,100698.00
2023-05-23T10:10:57.302Z,100695.69
2023-05-23T10:13:28.568Z,100689.22
2023-05-23T10:16:25.064Z,100690.94
2023-05-23T10:19:27.280Z,100692.31
2023-05-23T10:22:01.717Z,100688.66
2023-05-23T10:24:30.123Z,100691.38
2023-05-23T10:26:58.182Z,100691.91
2023-05-23T10:29:26.563Z,100685.66
2023-05-23T10:31:53.658Z,100684.56
2023-05-23T10:34:45.187Z,100686.94
2023-05-23T10:37:30.499Z,100692.16
2023-05-23T10:40:14.197Z,100691.63
2023-05-23T10:42:46.357Z,100688.44
2023-05-23T10:45:21.706Z,100684.28
2023-05-23T10:47:49.713Z,100682.09
2023-05-23T10:50:32.098Z,100679.97
2023-05-23T10:53:02.083Z,100679.63
2023-05-23T10:55:33.189Z,100670.09
2023-05-23T10:58:23.116Z,100671.59
2023-05-23T11:01:06.147Z,100672.31
2023-05-23T11:03:49.905Z,100670.16
2023-05-23T11:06:38.749Z,100669.28
2023-05-23T11:09:13.998Z,100660.25
2023-05-23T11:11:53.586Z,100666.97
2023-05-23T11:14:43.767Z,100660.81
2023-05-23T11:17:13.237Z,100658.09
2023-05-23T11:19:41.708Z,100661.81
2023-05-23T11:22:09.740Z,100653.91
2023-05-23T11:24:55.182Z,100654.91
2023-05-23T11:27:40.291Z,100650.84
2023-05-23T11:30:10.085Z,100652.09
2023-05-23T11:32:38.569Z,100651.31
2023-05-23T11:35:09.043Z,100654.59
2023-05-23T11:37:36.679Z,100651.31
2023-05-23T11:40:26.297Z,100650.78
2023-05-23T11:42:57.546Z,100655.94
2023-05-23T11:45:25.033Z,100660.16
2023-05-23T11:47:52.897Z,100656.41
2023-05-23T11:50:24.502Z,100650.06
2023-05-23T11:52:52.810Z,100640.06
2023-05-23T11:55:21.416Z,100642.94
2023-05-23T11:57:49.026Z,100646.66
2023-05-23T12:00:19.282Z,100649.19
2023-05-23T12:02:48.012Z,100644.09
2023-05-23T12:05:16.078Z,100634.28
2023-05-23T12:07:47.668Z,100640.22
2023-05-23T12:10:16.374Z,100634.59
2023-05-23T12:12:43.354Z,100627.31
2023-05-23T12:15:12.765Z,100644.41
2023-05-23T12:17:41.474Z,100644.19
2023-05-23T12:20:10.244Z,100637.56
2023-05-23T12:22:38.533Z,100632.97
2023-05-23T12:25:09.225Z,100637.66
2023-05-23T12:27:37.607Z,100628.31
2023-05-23T12:30:12.282Z,100625.44
2023-05-23T12:32:43.517Z,100622.00
2023-05-23T12:35:34.484Z,100614.25
2023-05-23T12:38:01.919Z,100616.44
2023-05-23T12:40:30.014Z,100613.47
2023-05-23T12:42:58.324Z,100614.47
2023-05-23T12:45:55.413Z,100607.53
2023-05-23T12:48:23.643Z,100605.19
2023-05-23T12:50:51.525Z,100603.47
2023-05-23T12:53:19.377Z,100596.13
2023-05-23T12:55:47.429Z,100592.28
2023-05-23T12:58:15.632Z,100598.78
2023-05-23T13:00:43.960Z,100603.88
2023-05-23T13:03:12.201Z,100603.09
2023-05-23T13:05:40.361Z,100599.22
2023-05-23T13:08:08.522Z,100599.47
2023-05-23T13:10:36.595Z,100597.63
2023-05-23T13:13:04.770Z,100598.38
2023-05-23T13:15:32.645Z,100599.69
2023-05-23T13:18:00.986Z,100593.13
2023-05-23T13:20:30.454Z,100590.19
2023-05-23T13:23:01.912Z,100592.75
2023-05-23T13:25:28.655Z,100586.50
2023-05-23T13:27:56.873Z,100589.00
2023-05-23T13:30:24.912Z,100589.75
2023-05-23T13:32:53.043Z,100583.00
2023-05-23T13:35:20.965Z,100584.28
2023-05-23T13:37:49.051Z,100586.59
2023-05-23T13:40:20.573Z,100582.44
2023-05-23T13:42:49.896Z,100579.75
2023-05-23T13:45:18.688Z,100578.75
2023-05-23T13:47:47.532Z,100578.97
2023-05-23T13:50:14.752Z,100578.69
2023-05-23T13:52:45.654Z,100580.88
2023-05-23T13:55:15.697Z,100578.06
2023-05-23T13:57:43.670Z,100583.16
2023-05-23T14:00:14.606Z,100585.31
2023-05-23T14:02:42.905Z,100578.78
2023-05-23T14:05:11.544Z,100576.13
2023-05-23T14:07:39.296Z,100575.16
2023-05-23T14:10:09.739Z,100572.47
2023-05-23T14:12:37.885Z,100574.91
2023-05-23T14:15:08.023Z,100574.50
2023-05-23T14:17:36.068Z,100567.66
2023-05-23T14:20:04.712Z,100576.38
2023-05-23T14:22:32.790Z,100573.94
2023-05-23T14:25:00.036Z,100567.66
2023-05-23T14:27:28.451Z,100567.00
2023-05-23T14:29:56.075Z,100564.88
2023-05-23T14:32:23.828Z,100563.31
2023-05-23T14:34:51.669Z,100568.09
2023-05-23T14:37:19.879Z,100565.28
2023-05-23T14:39:47.691Z,100562.00
2023-05-23T14:42:15.596Z,100548.59
2023-05-23T14:44:43.690Z,100550.66
2023-05-23T14:47:11.725Z,100545.25
2023-05-23T14:49:39.907Z,100551.38
2023-05-23T14:52:07.931Z,100535.59
2023-05-23T14:54:35.995Z,100545.19
2023-05-23T14:57:04.146Z,100545.78
2023-05-23T14:59:32.669Z,100542.41
2023-05-23T15:02:00.654Z,100528.69
2023-05-23T15:04:28.518Z,100530.19
2023-05-23T15:06:56.218Z,100523.63
2023-05-23T15:09:24.176Z,100533.38
2023-05-23T15:11:52.395Z,100533.53
2023-05-23T15:14:20.033Z,100532.94
2023-05-23T15:16:48.904Z,100525.25
2023-05-23T15:19:17.295Z,100519.19
2023-05-23T15:21:51.001Z,100528.72
2023-05-23T15:24:18.792Z,100510.41
2023-05-23T15:26:47.530Z,100515.84
2023-05-23T15:29:18.258Z,100514.13
2023-05-23T15:31:46.213Z,100512.59
2023-05-23T15:34:13.882Z,100516.31
2023-05-23T15:36:41.975Z,100510.56
2023-05-23T15:39:10.337Z,100514.84
2023-05-23T15:41:38.380Z,100511.22
2023-05-23T15:44:06.353Z,100508.28
2023-05-23T15:46:34.553Z,100512.97
2023-05-23T15:49:10.564Z,100508.09
2023-05-23T15:51:49.999Z,100514.25
2023-05-23T15:54:18.069Z,100512.78
2023-05-23T15:56:45.810Z,100507.72
2023-05-23T15:59:13.792Z,100503.06
2023-05-23T16:01:41.975Z,100497.50
2023-05-23T16:04:10.222Z,100497.78
2023-05-23T16:06:39.071Z,100497.00
2023-05-23T16:09:06.983Z,100491.03
2023-05-23T16:11:35.224Z,100491.88
2023-05-23T16:14:03.254Z,100490.19
2023-05-23T16:16:31.316Z,100484.09
2023-05-23T16:18:59.361Z,100476.50
2023-05-23T16:21:27.504Z,100490.19
2023-05-23T16:23:56.259Z,100483.19
2023-05-23T16:26:23.871Z,100486.31
2023-05-23T16:28:51.732Z,100475.50
2023-05-23T16:31:19.342Z,100475.88
2023-05-23T16:33:47.429Z,100482.16
2023-05-23T16:36:15.565Z,100478.53
2023-05-23T16:38:43.382Z,100485.44
2023-05-23T16:41:11.175Z,100482.03
2023-05-23T16:43:39.295Z,100482.25
2023-05-23T16:46:07.633Z,100478.38
2023-05-23T16:48:35.806Z,100487.88
2023-05-23T16:51:03.919Z,100473.03
2023-05-23T16:53:31.878Z,100468.84
2023-05-23T16:56:00.122Z,100469.97
2023-05-23T16:58:27.720Z,100472.31
2023-05-23T17:00:56.271Z,100478.38
2023-05-23T17:03:24.431Z,100478.28
2023-05-23T17:05:52.401Z,100473.16
2023-05-23T17:08:20.376Z,100479.44
2023-05-23T17:10:48.500Z,100484.63
2023-05-23T17:13:16.273Z,100489.72
2023-05-23T17:15:45.027Z,100487.00
2023-05-23T17:18:12.844Z,100491.88
2023-05-23T17:20:41.192Z,100489.75
2023-05-23T17:23:10.955Z,100493.75
2023-05-23T17:25:39.993Z,100491.31
2023-05-23T17:28:08.324Z,100495.66
2023-05-23T17:30:36.410Z,100500.09
2023-05-23T17:33:05.005Z,100498.38
2023-05-23T17:35:33.036Z,100507.38
2023-05-23T17:38:02.543Z,100508.03
2023-05-23T17:40:30.185Z,100513.41
2023-05-23T17:42:58.230Z,100516.53
2023-05-23T17:45:26.336Z,100515.31
2023-05-23T17:47:53.919Z,100518.25
2023-05-23T17:50:22.908Z,100530.34
2023-05-23T17:52:50.796Z,100528.53
2023-05-23T17:55:18.612Z,100535.75
2023-05-23T17:57:46.575Z,100540.56
2023-05-23T18:00:16.396Z,100534.53
2023-05-23T18:02:44.846Z,100544.09
2023-05-23T18:05:12.776Z,100544.88
2023-05-23T18:07:41.196Z,100541.09
2023-05-23T18:10:11.770Z,100560.84
2023-05-23T18:12:39.813Z,100557.91
2023-05-23T18:15:10.305Z,100558.19
2023-05-23T18:17:38.009Z,100549.84
2023-05-23T18:20:08.653Z,100566.69
2023-05-23T18:22:36.415Z,100558.47
2023-05-23T18:25:04.453Z,100562.63
2023-05-23T18:27:32.543Z,100561.13
2023-05-23T18:30:00.532Z,100560.28
2023-05-23T18:32:28.540Z,100563.53
2023-05-23T18:34:56.690Z,100569.97
2023-05-23T18:37:24.434Z,100566.72
2023-05-23T18:39:52.519Z,100572.59
2023-05-23T18:42:20.287Z,100573.09
2023-05-23T18:44:47.988Z,100574.91
2023-05-23T18:47:15.547Z,100572.75
2023-05-23T18:49:43.596Z,100585.56
2023-05-23T18:52:11.153Z,100575.75
2023-05-23T18:54:39.263Z,100578.91
2023-05-23T18:57:07.405Z,100586.28
2023-05-23T18:59:35.437Z,100586.81
2023-05-23T19:02:03.641Z,100583.00
2023-05-23T19:04:31.347Z,100590.19
2023-05-23T19:07:00.048Z,100591.22
2023-05-23T19:09:28.225Z,100599.34
2023-05-23T19:11:56.057Z,100596.06
2023-05-23T19:14:24.665Z,100598.84
2023-05-23T19:16:55.271Z,100598.34
2023-05-23T19:19:26.831Z,100601.41
2023-05-23T19:22:00.890Z,100606.03
2023-05-23T19:24:32.187Z,100603.84
2023-05-23T19:27:05.364Z,100614.13
2023-05-23T19:29:33.528Z,100621.81
2023-05-23T19:32:01.370Z,100620.94
2023-05-23T19:34:29.269Z,100624.25
2023-05-23T19:36:58.531Z,100623.16
2023-05-23T19:39:26.495Z,100628.47
2023-05-23T19:41:54.638Z,100630.94
2023-05-23T19:44:23.345Z,100632.59
2023-05-23T19:46:51.644Z,100632.81
2023-05-23T19:49:20.209Z,100628.56
2023-05-23T19:51:49.686Z,100630.09
2023-05-23T19:54:20.178Z,100634.63
2023-05-23T19:56:48.051Z,100640.66
2023-05-23T19:59:15.980Z,100646.63
2023-05-23T20:01:44.177Z,100649.56
2023-05-23T20:04:14.221Z,100649.56
2023-05-23T20:06:44.277Z,100648.72
2023-05-23T20:09:17.786Z,100649.66
2023-05-23T20:11:45.596Z,100651.91
2023-05-23T20:14:17.586Z,100660.34
2023-05-23T20:16:49.813Z,100668.03
2023-05-23T20:19:17.702Z,100666.06
2023-05-23T20:21:49.723Z,100672.88
2023-05-23T20:24:19.168Z,100668.97
2023-05-23T20:26:46.792Z,100672.47
2023-05-23T20:29:14.700Z,100682.06
2023-05-23T20:31:44.502Z,100684.25
2023-05-23T20:34:16.025Z,100683.50
2023-05-23T20:36:44.191Z,100690.34
2023-05-23T20:39:11.822Z,100693.28
2023-05-23T20:41:42.843Z,100694.09
2023-05-23T20:44:14.110Z,100700.31
2023-05-23T20:46:42.602Z,100691.59
2023-05-23T20:49:11.238Z,100696.81
2023-05-23T20:51:39.067Z,100693.41
2023-05-23T20:54:07.674Z,100702.47
2023-05-23T20:56:35.576Z,100704.34
2023-05-23T20:59:04.554Z,100714.91
2023-05-23T21:01:33.386Z,100717.63
2023-05-23T21:04:01.251Z,100711.63
2023-05-23T21:06:29.129Z,100714.22
2023-05-23T21:08:57.272Z,100720.63
2023-05-23T21:11:25.299Z,100714.59
2023-05-23T21:13:53.414Z,100719.09
2023-05-23T21:16:21.449Z,100715.00
2023-05-23T21:18:49.231Z,100712.69
2023-05-23T21:21:16.936Z,100720.72
2023-05-23T21:23:44.478Z,100720.72
2023-05-23T21:26:12.964Z,100713.72
2023-05-23T21:28:40.540Z,100718.16
2023-05-23T21:31:08.526Z,100718.97
2023-05-23T21:33:36.611Z,100722.44
2023-05-23T21:36:04.894Z,100715.66
2023-05-23T21:38:32.766Z,100727.28
2023-05-23T21:41:00.652Z,100721.22
2023-05-23T21:43:28.726Z,100723.81
2023-05-23T21:45:56.819Z,100722.22
2023-05-23T21:51:00.152Z,100724.84
2023-05-23T21:53:28.516Z,100715.94
2023-05-23T21:55:57.125Z,100720.84
2023-05-23T21:58:25.439Z,100726.25
2023-05-23T22:00:53.487Z,100723.78
2023-05-23T22:03:21.698Z,100729.19
2023-05-23T22:05:49.806Z,100726.47
2023-05-23T22:08:17.994Z,100730.88
2023-05-23T22:10:46.199Z,100731.38
2023-05-23T22:13:14.150Z,100730.38
2023-05-23T22:15:42.275Z,100725.47
2023-05-23T22:18:10.221Z,100722.84
2023-05-23T22:20:39.241Z,100723.81
2023-05-23T22:23:07.881Z,100721.16
2023-05-23T22:25:38.607Z,100723.03
2023-05-23T22:28:06.305Z,100728.28
2023-05-23T22:30:34.377Z,100729.25
2023-05-23T22:33:02.506Z,100723.13
2023-05-23T22:35:30.520Z,100716.13
2023-05-23T22:37:59.056Z,100716.19
2023-05-23T22:40:27.211Z,100707.56
2023-05-23T22:42:54.895Z,100712.09
2023-05-23T22:45:22.972Z,100711.84
2023-05-23T22:47:54.126Z,100709.28
2023-05-23T22:50:22.750Z,100704.94
2023-05-23T22:52:50.734Z,100710.97
2023-05-23T22:55:18.823Z,100704.06
2023-05-23T22:57:47.205Z,100702.25
2023-05-23T23:00:16.280Z,100705.91
2023-05-23T23:02:44.634Z,100707.72
2023-05-23T23:05:12.327Z,100706.94
2023-05-23T23:07:40.424Z,100702.56
2023-05-23T23:10:10.255Z,100699.19
2023-05-23T23:12:38.047Z,100699.28
2023-05-23T23:15:07.598Z,100691.59
2023-05-23T23:17:35.217Z,100694.41
2023-05-23T23:20:04.364Z,100691.03
2023-05-23T23:22:32.607Z,100689.41
2023-05-23T23:25:02.178Z,100689.56
2023-05-23T23:27:31.797Z,100689.69
2023-05-23T23:29:59.769Z,100694.94
2023-05-23T23:32:27.495Z,100689.56
2023-05-23T23:34:55.168Z,100695.63
2023-05-23T23:37:24.625Z,100694.66
2023-05-23T23:39:52.640Z,100687.75
2023-05-23T23:42:20.510Z,100694.88
2023-05-23T23:44:48.324Z,100693.09
2023-05-23T23:47:16.248Z,100692.25
2023-05-23T23:49:44.250Z,100689.91
2023-05-23T23:52:12.863Z,100690.75
2023-05-23T23:54:40.474Z,100688.44
2023-05-23T23:57:13.743Z,100686.66
2023-05-23T23:59:41.765Z,100682.31
